Sunday, June 17, 2018, 10:10 PM EDT
Back to Local

KILG, Wilmington New Castle Co

Location: New Castle, DE, United States Lat: 39.667
Local Time: 10:10 PM EDT ( 2:10 GMT) Lon: -75.6
Time Zone: US/Eastern Elev: 78 ft

Show me the last for .
Show Coded

Time T Td Feel RH Dir Speed Gust Alt SLP Vis Weather Sky Remarks
2018-06-17 21:51 74 70 78 87 160° 8 - 30.08 30.07 10 CLR None
2018-06-17 20:51 75 67 78 75 160° 12 - 30.07 30.06 10 CLR None
2018-06-17 19:51 77 64 79 64 170° 10 - 30.07 30.07 10 CLR 6-hr Min Temp (8pm): 77.0°F
6-hr Max Temp (8pm): 88.0°F
2018-06-17 18:51 79 65 81 62 170° 13 - 30.07 30.06 10 CLR None
2018-06-17 17:51 83 63 85 51 170° 13 - 30.06 30.06 10 CLR None
2018-06-17 16:51 85 60 86 43 180° 12 - 30.07 30.06 10 CLR None
2018-06-17 15:51 87 61 88 41 160° 13 - 30.07 30.06 10 CLR None
2018-06-17 14:51 87 57 - 36 160° 8 - 30.07 30.07 10 CLR None
2018-06-17 13:51 87 56 - 34 140° 8 - 30.07 30.06 10 CLR 6-hr Min Temp (2pm): 73.0°F
6-hr Max Temp (2pm): 87.1°F
2018-06-17 12:51 86 56 - 36 130° 7 - 30.09 30.08 10 CLR None
2018-06-17 11:51 86 58 - 38 140° 7 - 30.10 30.10 10 CLR None
2018-06-17 10:51 84 59 84 42 140° 7 - 30.10 30.09 10 CLR None
2018-06-17 09:51 80 65 82 60 - Calm - 30.11 30.10 10 CLR None
2018-06-17 08:51 77 67 80 71 - Calm - 30.10 30.10 10 CLR None
2018-06-17 07:51 73 65 77 75 - Calm - 30.09 30.08 10 CLR 6-hr Min Temp (8am): 63.0°F
6-hr Max Temp (8am): 73.0°F
2018-06-17 06:51 67 64 - 90 - Calm - 30.07 30.07 10 CLR None
2018-06-17 05:51 63 62 - 96 330° 3 - 30.06 30.06 10 CLR None
2018-06-17 04:51 65 63 - 93 - Calm - 30.05 30.05 10 CLR None
2018-06-17 03:51 65 63 - 93 - Calm - 30.04 30.04 10 CLR None
2018-06-17 02:51 68 62 - 81 - Calm - 30.05 30.05 10 CLR None
2018-06-17 01:51 70 62 - 76 - Calm - 30.06 30.06 10 CLR 6-hr Min Temp (2am): 68.0°F
6-hr Max Temp (2am): 79.0°F
2018-06-17 00:51 70 65 - 84 200° 5 - 30.06 30.06 10 CLR 24-hr Min Temp (1am): 55.9°F
24-hr Max Temp (1am): 84.9°F
2018-06-16 23:51 71 66 76 84 190° 5 - 30.05 30.05 10 CLR None
2018-06-16 22:51 71 66 76 84 170° 5 - 30.05 30.04 10 CLR None

Support USWX by starting your Amazon purchase here.